createdAt,value
2018-09-10T00:04:36.610Z,4.29
2018-09-10T00:10:31.583Z,4.53
2018-09-10T00:16:26.605Z,4.17
2018-09-10T00:22:21.566Z,4.56
2018-09-10T00:28:16.603Z,4.27
2018-09-10T00:34:11.590Z,4.72
2018-09-10T00:40:06.621Z,4.36
2018-09-10T00:46:01.617Z,4.04
2018-09-10T00:51:56.622Z,4.05
2018-09-10T00:57:51.653Z,3.87
2018-09-10T01:03:46.620Z,4.45
2018-09-10T01:09:41.685Z,4.96
2018-09-10T01:15:36.665Z,3.92
2018-09-10T01:21:31.671Z,4.02
2018-09-10T01:27:26.653Z,4.52
2018-09-10T01:33:21.693Z,4.48
2018-09-10T01:39:16.649Z,4.09
2018-09-10T01:45:11.680Z,4.08
2018-09-10T01:51:06.716Z,4.35
2018-09-10T01:57:01.701Z,4.52
2018-09-10T02:02:56.704Z,4.23
2018-09-10T02:08:51.685Z,4.38
2018-09-10T02:14:46.709Z,4.73
2018-09-10T02:20:41.712Z,4.28
2018-09-10T02:26:36.729Z,4.5
2018-09-10T02:32:31.753Z,4.2
2018-09-10T02:38:26.769Z,4.23
2018-09-10T02:44:21.714Z,4.37
2018-09-10T02:50:16.718Z,4.08
2018-09-10T02:56:11.734Z,4.95
2018-09-10T03:02:06.789Z,4.03
2018-09-10T03:08:01.757Z,3.92
2018-09-10T03:13:56.840Z,3.93
2018-09-10T03:19:51.758Z,4.21
2018-09-10T03:25:46.781Z,3.92
2018-09-10T03:31:41.918Z,4.01
2018-09-10T03:37:36.837Z,3.88
2018-09-10T03:43:31.799Z,3.41
2018-09-10T03:49:26.807Z,4.52
2018-09-10T03:55:21.773Z,3.96
2018-09-10T04:01:16.775Z,4.16
2018-09-10T04:07:11.801Z,3.67
2018-09-10T04:13:06.793Z,4.5
2018-09-10T04:19:01.827Z,5.33
2018-09-10T04:24:56.863Z,3.67
2018-09-10T04:30:51.842Z,4.27
2018-09-10T04:36:46.823Z,4.72
2018-09-10T04:42:41.847Z,3.86
2018-09-10T04:48:36.851Z,4.1
2018-09-10T04:54:31.837Z,4.29
2018-09-10T05:00:26.853Z,4.08
2018-09-10T05:06:21.879Z,3.93
2018-09-10T05:12:16.899Z,5.13
2018-09-10T05:18:11.877Z,4.44
2018-09-10T05:24:06.909Z,3.95
2018-09-10T05:30:02.194Z,3.87
2018-09-10T05:35:56.950Z,3.84
2018-09-10T05:41:51.899Z,4.66
2018-09-10T05:47:46.893Z,5.1
2018-09-10T05:53:41.908Z,5.1
2018-09-10T05:59:36.941Z,4.3
2018-09-10T06:05:31.909Z,4.7
2018-09-10T06:11:26.926Z,4.82
2018-09-10T06:17:21.926Z,4.39
2018-09-10T06:23:16.939Z,4.1
2018-09-10T06:29:11.977Z,4.69
2018-09-10T06:35:06.931Z,4.9
2018-09-10T06:41:01.945Z,6.1
2018-09-10T06:46:56.968Z,5.25
2018-09-10T06:52:51.968Z,4.53
2018-09-10T06:58:46.961Z,4.6
2018-09-10T07:04:42.023Z,3.97
2018-09-10T07:10:37.009Z,4.49
2018-09-10T07:16:31.991Z,5.43
2018-09-10T07:22:26.991Z,4.86
2018-09-10T07:28:21.994Z,5.63
2018-09-10T07:34:17.049Z,4.24
2018-09-10T07:40:12.020Z,4.14
2018-09-10T07:46:07.022Z,4.8
2018-09-10T07:52:02.037Z,4.69
2018-09-10T07:57:57.042Z,5.22
2018-09-10T08:03:52.024Z,5.23
2018-09-10T08:09:47.032Z,5.6
2018-09-10T08:15:42.014Z,6.06
2018-09-10T08:21:37.049Z,5.98
2018-09-10T08:27:32.046Z,5.64
2018-09-10T08:33:27.058Z,6.57
2018-09-10T08:39:22.052Z,7.55
2018-09-10T08:45:17.101Z,7.41
2018-09-10T08:51:12.061Z,7.86
2018-09-10T08:57:07.106Z,7.22
2018-09-10T09:03:02.072Z,7.56
2018-09-10T09:08:57.076Z,5.91
2018-09-10T09:14:52.113Z,6.24
2018-09-10T09:20:47.126Z,5.42
2018-09-10T09:26:42.107Z,6.81
2018-09-10T09:32:37.126Z,6.3
2018-09-10T09:38:32.127Z,7.24
2018-09-10T09:44:27.113Z,7.96
2018-09-10T09:50:22.128Z,6.68
2018-09-10T09:56:17.144Z,7.01
2018-09-10T10:02:12.171Z,6.17
2018-09-10T10:08:07.139Z,6.13
2018-09-10T10:14:02.155Z,5.59
2018-09-10T10:19:57.180Z,5.61
2018-09-10T10:25:52.167Z,5.15
2018-09-10T10:31:47.194Z,4.03
2018-09-10T10:37:42.157Z,4.63
2018-09-10T10:43:37.181Z,5
2018-09-10T10:49:32.172Z,5.24
2018-09-10T10:55:27.241Z,4.37
2018-09-10T11:01:22.191Z,3.99
2018-09-10T11:07:17.244Z,4.08
2018-09-10T11:13:12.222Z,3.55
2018-09-10T11:19:07.225Z,3.78
2018-09-10T11:25:02.223Z,3.25
2018-09-10T11:30:57.229Z,3.54
2018-09-10T11:36:52.225Z,2.44
2018-09-10T11:42:47.229Z,2.87
2018-09-10T11:48:42.278Z,2.31
2018-09-10T11:54:37.259Z,2.45
2018-09-10T12:00:32.241Z,2.27
2018-09-10T12:06:27.277Z,2.11
2018-09-10T12:12:22.272Z,2.1
2018-09-10T12:18:17.299Z,2.44
2018-09-10T12:24:12.303Z,2.99
2018-09-10T12:30:07.319Z,2.35
2018-09-10T12:36:02.353Z,2.33
2018-09-10T12:41:57.298Z,2.43
2018-09-10T12:47:52.286Z,2.53
2018-09-10T12:53:47.312Z,2.66
2018-09-10T12:59:42.352Z,2.48
2018-09-10T13:05:37.316Z,2.9
2018-09-10T13:11:32.366Z,3.05
2018-09-10T13:17:27.414Z,2.63
2018-09-10T13:23:22.345Z,3.67
2018-09-10T13:29:17.355Z,3.2
2018-09-10T13:35:12.339Z,3.09
2018-09-10T13:41:07.366Z,3.66
2018-09-10T13:47:02.441Z,3.41
2018-09-10T13:52:57.392Z,3.11
2018-09-10T13:58:52.402Z,3.18
2018-09-10T14:04:47.365Z,3.26
2018-09-10T14:10:42.452Z,3.17
2018-09-10T14:16:37.441Z,2.93
2018-09-10T14:22:32.408Z,3.05
2018-09-10T14:28:27.400Z,2.71
2018-09-10T14:34:22.434Z,3.18
2018-09-10T14:40:17.400Z,3.31
2018-09-10T14:46:12.473Z,2.59
2018-09-10T14:52:07.462Z,3.8
2018-09-10T14:58:02.470Z,2.58
2018-09-10T15:03:57.494Z,2.54
2018-09-10T15:09:52.444Z,2.54
2018-09-10T15:15:47.485Z,2.42
2018-09-10T15:21:42.455Z,3.07
2018-09-10T15:27:37.491Z,2.07
2018-09-10T15:33:32.483Z,3.01
2018-09-10T15:39:27.472Z,2.62
2018-09-10T15:45:22.518Z,2.92
2018-09-10T15:51:17.554Z,2.78
2018-09-10T15:57:12.529Z,3.21
2018-09-10T16:03:07.518Z,3.29
2018-09-10T16:09:02.515Z,3.08
2018-09-10T16:14:57.545Z,3.12
2018-09-10T16:20:52.547Z,3.07
2018-09-10T16:26:47.563Z,2.87
2018-09-10T16:32:42.526Z,3.26
2018-09-10T16:38:37.535Z,3.46
2018-09-10T16:44:32.534Z,3.54
2018-09-10T16:50:27.564Z,3.23
2018-09-10T16:56:22.563Z,3.52
2018-09-10T17:02:17.576Z,3.71
2018-09-10T17:08:12.586Z,3.38
2018-09-10T17:14:07.599Z,4.79
2018-09-10T17:20:02.646Z,3.75
2018-09-10T17:25:57.609Z,4.36
2018-09-10T17:31:52.576Z,6.85
2018-09-10T17:37:47.590Z,3.86
2018-09-10T17:43:42.657Z,5.46
2018-09-10T17:49:37.624Z,5.37
2018-09-10T17:55:32.639Z,4.49
2018-09-10T18:01:27.618Z,4.29
2018-09-10T18:07:22.664Z,3.93
2018-09-10T18:13:17.658Z,4.4
2018-09-10T18:19:12.626Z,3.66
2018-09-10T18:25:07.653Z,3.79
2018-09-10T18:31:02.647Z,3.56
2018-09-10T18:36:57.645Z,3.76
2018-09-10T18:42:52.651Z,4.82
2018-09-10T18:48:47.705Z,3.72
2018-09-10T18:54:42.693Z,4.28
2018-09-10T19:00:37.785Z,4.21
2018-09-10T19:06:32.698Z,3.85
2018-09-10T19:12:27.714Z,3.99
2018-09-10T19:18:22.697Z,4.23
2018-09-10T19:24:17.736Z,3.97
2018-09-10T19:30:12.735Z,3.17
2018-09-10T19:36:07.744Z,3.94
2018-09-10T19:42:02.721Z,3.96
2018-09-10T19:47:57.729Z,4.04
2018-09-10T19:53:52.728Z,3.93
2018-09-10T19:59:47.777Z,3.6
2018-09-10T20:05:42.764Z,4.28
2018-09-10T20:11:37.829Z,4
2018-09-10T20:17:32.748Z,3.77
2018-09-10T20:23:27.761Z,4.04
2018-09-10T20:29:22.833Z,4.49
2018-09-10T20:35:17.816Z,3.81
2018-09-10T20:41:12.775Z,3.94
2018-09-10T20:47:07.768Z,4.07
2018-09-10T20:53:02.801Z,3.88
2018-09-10T20:58:57.800Z,4.06
2018-09-10T21:04:52.788Z,4.15
2018-09-10T21:10:47.858Z,3.56
2018-09-10T21:16:42.817Z,4.1
2018-09-10T21:22:37.824Z,4.11
2018-09-10T21:28:32.814Z,4.13
2018-09-10T21:34:27.850Z,3.8
2018-09-10T21:40:22.838Z,3.89
2018-09-10T21:46:17.896Z,4.07
2018-09-10T21:52:12.840Z,3.63
2018-09-10T21:58:07.845Z,4.08
2018-09-10T22:04:02.917Z,4.27
2018-09-10T22:09:57.908Z,4.14
2018-09-10T22:15:52.878Z,4.14
2018-09-10T22:21:47.882Z,4.31
2018-09-10T22:27:42.881Z,4.63
2018-09-10T22:33:37.977Z,4.58
2018-09-10T22:39:32.889Z,4.54
2018-09-10T22:45:27.917Z,4.45
2018-09-10T22:51:22.908Z,5.03
2018-09-10T22:57:17.899Z,4.88
2018-09-10T23:03:12.951Z,4.57
2018-09-10T23:09:07.924Z,4.62
2018-09-10T23:15:02.936Z,4.58
2018-09-10T23:20:57.986Z,4.05
2018-09-10T23:26:52.990Z,4.16
2018-09-10T23:32:47.929Z,4.67
2018-09-10T23:38:42.956Z,4.57
2018-09-10T23:44:38.008Z,4.68
2018-09-10T23:50:32.990Z,4.99
2018-09-10T23:56:27.987Z,4.21
